• Join FlightAware (Why Join?)
  • Login
  • US Flag 
12:04PM EDT


 

Airport Tracker/Info


-or-


 

Live Flight TrackerFlight Track Log ✈ KFS724 ✈ 12-Jun-2013 ✈ KLRD - KTUS

Flight Track Log - Related Links

Times and Time Zones

All times are in EDT time to prevent confusion due to time zone crossing. See the KFS724 flight status page for this flight to view local times or setup timezone preferences in your user account.

Time Position Orientation Groundspeed Altitude Reporting Facility
EDT Latitude Longitude Course Direction KTS MPH feet Rate Location/Type
07:40PM 27.5183 -99.4608 330° Northwest 150 173 1,300  Level Houston Center
07:41PM 27.4911 -99.4150 124° Southeast 184 212 2,900 1,800 Climbing Houston Center
07:42PM 27.5394 -99.3692 40° Northeast 236 272 5,000 2,100 Climbing Houston Center
07:43PM 27.6092 -99.4111 332° Northwest 279 321 7,300 2,460 Climbing Houston Center
07:44PM 27.6767 -99.4650 325° Northwest 292 336 10,100 1,980 Climbing Houston Center
07:45PM 27.9934 -99.7824 327° Northwest  Level FlightAware Approximate
07:45PM 27.7478 -99.5186 326° Northwest 299 344 11,500  Level Houston Center
07:46PM 28.0902 -99.8546 330° Northwest  Level FlightAware Approximate
07:46PM 27.8353 -99.5808 328° Northwest 353 406 12,800  Level Houston Center
07:47PM 27.9269 -99.6536 325° Northwest 393 452 14,800 1,800 Climbing Houston Center
07:48PM 28.0389 -99.7419 325° Northwest 407 468 16,600 1,500 Climbing Houston Center
07:49PM 28.1394 -99.8181 326° Northwest 431 496 18,000 1,380 Climbing Houston Center
07:51PM 28.2425 -99.8964 326° Northwest 444 511 19,500 1,260 Climbing Houston Center
07:52PM 28.3458 -99.9783 325° Northwest 451 519 20,600 1,140 Climbing Houston Center
07:53PM 28.4511 -100.0606 326° Northwest 458 527 21,900 1,260 Climbing Houston Center
07:54PM 28.5581 -100.1378 328° Northwest 456 525 23,300 1,140 Climbing Houston Center
07:55PM 28.6783 -100.2275 327° Northwest 455 524 24,300 1,140 Climbing Houston Center
07:56PM 28.7853 -100.3092 326° Northwest 462 532 25,700 1,260 Climbing Houston Center
07:57PM 28.8892 -100.3911 325° Northwest 455 524 27,000 1,020 Climbing Houston Center
07:58PM 28.9936 -100.4753 325° Northwest 457 526 27,900 960 Climbing Houston Center
07:59PM 29.0972 -100.5569 325° Northwest 451 519 29,000 780 Climbing Houston Center
08:00PM 29.2228 -100.6578 325° Northwest 459 528 29,600 540 Climbing Houston Center
08:01PM 29.3303 -100.7456 325° Northwest 471 542 30,200 720 Climbing Houston Center
08:02PM 29.4192 -100.8508 314° West 461 531 31,100 900 Climbing Houston Center
08:03PM 29.5053 -100.9656 311° West 466 536 32,100 900 Climbing Houston Center
08:04PM 29.5867 -101.0756 310° West 459 528 33,000 660 Climbing Houston Center
08:05PM 29.6661 -101.1842 310° West 449 517 33,500 420 Climbing Houston Center
08:06PM 29.7375 -101.3033 305° West 453 521 33,900 600 Climbing Houston Center
08:07PM 29.8031 -101.4575 296° West 450 518 34,800 600 Climbing Houston Center
08:08PM 29.8578 -101.5853 296° West 446 513 35,200 360 Climbing Houston Center
08:09PM 29.9139 -101.7106 297° West 442 509 35,600 360 Climbing Houston Center
08:10PM 29.9689 -101.8369 297° West 441 507 36,000 180 Climbing Houston Center
08:11PM 30.0250 -101.9625 297° West 441 507 36,000  Level Houston Center
08:12PM 30.0792 -102.0919 296° West 444 511 36,000  Level Houston Center
08:13PM 30.1358 -102.2181 297° West 443 510 36,000  Level Houston Center
08:14PM 30.2058 -102.3717 298° West 445 512 36,000  Level Houston Center
08:15PM 30.2800 -102.4944 305° West 456 525 36,000  Level Houston Center
08:16PM 30.3422 -102.6239 299° West 459 528 36,000  Level Houston Center
08:17PM 30.4000 -102.7631 296° West 471 542 36,000  Level Houston Center
08:18PM 30.4553 -102.8975 296° West 464 534 36,000  Level Houston Center
08:19PM 30.5136 -103.0325 297° West 467 537 36,000  Level Houston Center
08:20PM 30.5703 -103.1683 296° West 467 537 36,000  Level Houston Center
08:21PM 30.6389 -103.3328 296° West 471 542 36,000  Level Houston Center
08:22PM 30.6956 -103.4675 296° West 466 536 36,000  Level Houston Center
08:24PM 30.7589 -103.6286 295° West 468 539 36,000  Level Albuquerque Center
08:25PM 30.8192 -103.7675 297° West 474 545 36,000  Level Albuquerque Center
08:26PM 30.8736 -103.9006 296° West 469 540 36,000  Level Albuquerque Center
08:27PM 30.9292 -104.0356 296° West 466 536 36,000  Level Albuquerque Center
08:28PM 30.9844 -104.1717 295° West 468 539 36,000  Level Albuquerque Center
08:29PM 31.0500 -104.3347 295° West 466 536 36,000  Level Albuquerque Center
08:30PM 31.1047 -104.4708 295° West 467 537 36,000  Level Albuquerque Center
08:31PM 31.1600 -104.6064 296° West 468 539 36,000  Level Albuquerque Center
08:32PM 31.2139 -104.7417 295° West 466 536 36,000  Level Albuquerque Center
08:33PM 31.2689 -104.8769 295° West 466 536 36,000  Level Albuquerque Center
08:34PM 31.3344 -105.0414 295° West 470 541 36,000  Level Albuquerque Center
08:35PM 31.3886 -105.1778 295° West 467 537 36,000  Level Albuquerque Center
08:36PM 31.4419 -105.3150 295° West 467 537 36,000  Level Albuquerque Center
08:37PM 31.4964 -105.4550 295° West 472 543 36,000  Level Albuquerque Center
08:38PM 31.5506 -105.5942 295° West 472 543 36,000  Level Albuquerque Center
08:39PM 31.5744 -105.7419 281° West 473 544 36,000  Level Albuquerque Center
08:40PM 31.5842 -105.9239 274° West 469 540 36,000  Level Albuquerque Center
08:41PM 31.5939 -106.0761 274° West 470 541 36,000  Level Albuquerque Center
08:42PM 31.6033 -106.2289 274° West 472 543 36,000  Level Albuquerque Center
08:43PM 31.6122 -106.3833 274° West 475 547 36,000  Level Albuquerque Center
08:44PM 31.6222 -106.5383 274° West 478 550 36,000  Level Albuquerque Center
08:45PM 31.6350 -106.7131 275° West 476 548 36,000  Level Albuquerque Center
08:46PM 31.6625 -106.8647 282° West 473 544 36,000  Level Albuquerque Center
08:47PM 31.6817 -107.0189 278° West 477 549 36,000  Level Albuquerque Center
08:48PM 31.6969 -107.1736 277° West 475 547 36,000  Level Albuquerque Center
08:49PM 31.7153 -107.3292 278° West 478 550 36,000  Level Albuquerque Center
08:50PM 31.7339 -107.4839 278° West 477 549 36,000  Level Albuquerque Center
08:51PM 31.7528 -107.6478 278° West 472 543 36,000  Level Albuquerque Center
08:53PM 31.7711 -107.7992 278° West 471 542 36,000  Level Albuquerque Center
08:54PM 31.7878 -107.9492 277° West 469 540 36,000  Level Albuquerque Center
08:55PM 31.8056 -108.0986 278° West 466 536 36,000  Level Albuquerque Center
08:56PM 31.8247 -108.2808 277° West 469 540 36,000  Level Albuquerque Center
08:57PM 31.8419 -108.4308 278° West 467 537 36,000  Level Albuquerque Center
08:58PM 31.8583 -108.5806 277° West 465 535 36,000  Level Albuquerque Center
08:59PM 31.8758 -108.7319 278° West 467 537 36,000  Level Albuquerque Center
09:00PM 31.8922 -108.8828 277° West 468 539 36,000 -540 Level Albuquerque Center
09:01PM 31.9089 -109.0344 277° West 469 540 34,900 -2,220 Descending Albuquerque Center
09:02PM 31.9278 -109.2236 277° West 483 556 31,500 -3,300 Descending Albuquerque Center
09:03PM 31.9450 -109.3858 277° West 494 568 28,200 -3,300 Descending Albuquerque Center
09:04PM 31.9628 -109.5517 277° West 502 578 24,800 -3,180 Descending Albuquerque Center
09:05PM 31.9811 -109.7097 278° West 502 578 21,800 -3,180 Descending Albuquerque Center
09:06PM 31.9969 -109.8617 277° West 491 565 18,400 -2,880 Descending Albuquerque Center
09:07PM 32.0111 -110.0086 277° West 477 549 15,900 -1,980 Descending Albuquerque Center
09:08PM 32.0239 -110.1614 276° West 425 489 14,400 -1,080 Descending Albuquerque Center
09:09PM 32.0339 -110.2514 277° West 391 450 14,100 -540 Descending Albuquerque Center
09:09PM 32.0353 -110.2847 273° West 395 455 13,900 -1,020 Descending Albuquerque Center
09:10PM 32.0233 -110.3703 261° West 360 414 13,100 -1,200 Descending Albuquerque Center
09:10PM 32.0211 -110.4000 265° West 363 418 12,700 -1,680 Descending Albuquerque Center
09:11PM 32.0097 -110.4622 258° West 314 361 11,600 -1,980 Descending Albuquerque Center
09:11PM 32.0061 -110.4950 263° West 316 364 10,700 -1,980 Descending Albuquerque Center
09:12PM 31.9906 -110.5603 254° West 304 350 9,600 -1,380 Descending Albuquerque Center
09:12PM 31.9867 -110.5914 262° West 308 354 9,300 -1,020 Descending Albuquerque Center
09:13PM 31.9717 -110.6486 253° West 282 325 8,600 -900 Descending Albuquerque Center
09:13PM 31.9703 -110.6783 267° West 291 335 8,400 -600 Descending Albuquerque Center
09:14PM 31.9689 -110.7197 268° West 243 280 8,100 -780 Descending Albuquerque Center
09:14PM 31.9800 -110.7558 290° West 242 278 7,600 -900 Descending Albuquerque Center
09:15PM 32.0044 -110.8083 299° West 219 252 6,700 -540 Descending Albuquerque Center
09:16PM 32.0297 -110.8606 300° West 213 245 6,500 -1,500 Descending Albuquerque Center
09:17PM 32.0511 -110.8658 348° North 157 181 4,600 -2,460 Descending Albuquerque Center
09:17PM 32.0761 -110.8944 316° Northwest 138 159 3,400 -1,020 Descending Albuquerque Center
09:18PM 32.1014 -110.9253 314° West 141 162 2,800 -660 Descending Albuquerque Center
09:20PM 32.1000 -110.9333 301° West  Level FlightAware Approximate
09:27PM 32.1161 -110.9410 301° West  Level Estimated